createdAt,value
2019-03-03T00:00:38.365Z,17.75
2019-03-03T00:01:39.517Z,16.67
2019-03-03T00:02:40.660Z,14.23
2019-03-03T00:03:41.819Z,12.65
2019-03-03T00:04:42.970Z,12.98
2019-03-03T00:05:44.385Z,16.35
2019-03-03T00:06:45.520Z,16.73
2019-03-03T00:07:46.661Z,14.33
2019-03-03T00:08:47.817Z,11.88
2019-03-03T00:09:49.642Z,15.58
2019-03-03T00:10:50.781Z,19.50
2019-03-03T00:11:52.130Z,13.28
2019-03-03T00:12:53.537Z,12.90
2019-03-03T00:13:54.676Z,15.80
2019-03-03T00:14:55.945Z,14.93
2019-03-03T00:15:58.789Z,13.72
2019-03-03T00:17:00.029Z,14.60
2019-03-03T00:18:01.163Z,19.45
2019-03-03T00:19:02.622Z,16.55
2019-03-03T00:20:07.579Z,13.55
2019-03-03T00:21:08.725Z,15.00
2019-03-03T00:22:10.169Z,16.17
2019-03-03T00:23:11.316Z,17.40
2019-03-03T00:24:12.454Z,14.18
2019-03-03T00:25:14.809Z,16.95
2019-03-03T00:26:16.055Z,16.27
2019-03-03T00:27:17.193Z,13.45
2019-03-03T00:28:18.326Z,17.75
2019-03-03T00:29:19.468Z,19.05
2019-03-03T00:30:20.720Z,12.53
2019-03-03T00:31:33.701Z,18.40
2019-03-03T00:32:34.844Z,19.62
2019-03-03T00:33:35.988Z,11.55
2019-03-03T00:34:37.130Z,14.30
2019-03-03T00:35:38.681Z,16.55
2019-03-03T00:36:58.153Z,18.15
2019-03-03T00:38:10.073Z,15.45
2019-03-03T00:39:13.118Z,13.62
2019-03-03T00:40:34.450Z,16.85
2019-03-03T00:41:54.262Z,18.50
2019-03-03T00:44:22.953Z,15.60
2019-03-03T00:45:26.011Z,9.70
2019-03-03T00:46:31.574Z,17.10
2019-03-03T00:47:51.226Z,12.25
2019-03-03T00:49:06.237Z,13.95
2019-03-03T00:50:15.350Z,13.53
2019-03-03T00:51:18.401Z,14.55
2019-03-03T00:52:27.272Z,17.00
2019-03-03T00:53:45.653Z,17.05
2019-03-03T00:54:51.477Z,20.55
2019-03-03T00:56:06.661Z,19.10
2019-03-03T00:57:09.712Z,15.63
2019-03-03T00:58:15.676Z,16.77
2019-03-03T00:59:21.313Z,15.70
2019-03-03T01:00:28.060Z,13.98
2019-03-03T01:01:43.036Z,16.85
2019-03-03T01:02:46.637Z,18.12
2019-03-03T01:03:58.245Z,19.15
2019-03-03T01:05:10.509Z,20.82
2019-03-03T01:06:13.754Z,22.00
2019-03-03T01:07:25.889Z,19.80
2019-03-03T01:08:45.645Z,21.30
2019-03-03T01:09:48.685Z,18.98
2019-03-03T01:10:52.045Z,19.05
2019-03-03T01:12:13.296Z,19.87
2019-03-03T01:13:18.859Z,18.35
2019-03-03T01:14:27.704Z,21.62
2019-03-03T01:15:33.549Z,18.30
2019-03-03T01:16:38.568Z,18.73
2019-03-03T01:17:44.388Z,19.23
2019-03-03T01:18:54.937Z,19.67
2019-03-03T01:20:14.314Z,19.10
2019-03-03T01:21:29.845Z,19.87
2019-03-03T01:22:32.882Z,23.25
2019-03-03T01:23:41.535Z,19.37
2019-03-03T01:24:47.105Z,23.92
2019-03-03T01:25:48.482Z,15.72
2019-03-03T01:26:49.625Z,20.88
2019-03-03T01:27:50.761Z,22.05
2019-03-03T01:28:51.896Z,24.95
2019-03-03T01:29:53.040Z,20.23
2019-03-03T01:30:54.204Z,20.92
2019-03-03T01:31:55.333Z,24.50
2019-03-03T02:07:39.985Z,21.47
2019-03-03T02:09:42.164Z,16.55
2019-03-03T02:10:43.700Z,20.57
2019-03-03T02:11:44.845Z,20.70
2019-03-03T02:13:46.997Z,18.70
2019-03-03T02:14:48.139Z,20.20
2019-03-03T02:15:49.772Z,16.85
2019-03-03T02:17:52.242Z,17.50
2019-03-03T02:19:54.464Z,18.60
2019-03-03T02:20:55.604Z,19.73
2019-03-03T02:21:56.752Z,15.77
2019-03-03T02:22:57.885Z,17.25
2019-03-03T02:23:59.026Z,18.40
2019-03-03T02:25:00.288Z,15.05
2019-03-03T02:26:01.501Z,18.40
2019-03-03T02:28:04.258Z,20.85
2019-03-03T02:31:12.589Z,11.85
2019-03-03T02:32:13.741Z,14.40
2019-03-03T02:33:14.875Z,14.10
2019-03-03T02:34:16.032Z,17.50
2019-03-03T02:35:17.265Z,14.50
2019-03-03T02:36:18.432Z,15.83
2019-03-03T02:37:19.581Z,13.70
2019-03-03T02:38:20.717Z,18.00
2019-03-03T02:39:21.894Z,18.63
2019-03-03T02:40:23.126Z,15.47
2019-03-03T02:41:24.638Z,17.27
2019-03-03T02:42:26.087Z,14.03
2019-03-03T02:43:27.231Z,10.48
2019-03-03T02:44:28.417Z,12.03
2019-03-03T02:45:29.891Z,15.50
2019-03-03T02:46:31.043Z,18.87
2019-03-03T02:47:32.198Z,16.93
2019-03-03T02:48:33.349Z,14.30
2019-03-03T02:49:34.593Z,12.53
2019-03-03T02:50:35.727Z,13.18
2019-03-03T02:51:36.875Z,12.93
2019-03-03T02:52:38.122Z,16.23
2019-03-03T02:53:39.266Z,15.00
2019-03-03T02:54:40.394Z,14.33
2019-03-03T02:55:41.530Z,15.53
2019-03-03T02:56:42.662Z,15.48
2019-03-03T02:57:43.895Z,13.58
2019-03-03T02:58:45.037Z,11.22
2019-03-03T02:59:46.174Z,12.98
2019-03-03T03:00:49.228Z,10.28
2019-03-03T03:01:52.267Z,13.25
2019-03-03T03:02:55.317Z,15.03
2019-03-03T03:03:56.814Z,11.05
2019-03-03T03:04:57.967Z,16.27
2019-03-03T03:06:03.519Z,14.80
2019-03-03T03:07:06.625Z,13.32
2019-03-03T03:08:09.800Z,11.70
2019-03-03T03:09:13.234Z,11.47
2019-03-03T03:10:16.575Z,13.27
2019-03-03T03:11:19.620Z,14.40
2019-03-03T03:12:28.616Z,13.28
2019-03-03T03:13:31.675Z,11.93
2019-03-03T03:14:34.723Z,12.65
2019-03-03T03:15:40.650Z,11.08
2019-03-03T03:16:55.860Z,10.58
2019-03-03T03:17:58.910Z,13.85
2019-03-03T03:19:04.478Z,14.45
2019-03-03T03:20:10.158Z,8.45
2019-03-03T03:21:13.214Z,14.53
2019-03-03T03:22:25.238Z,12.00
2019-03-03T03:23:37.191Z,16.70
2019-03-03T03:24:43.342Z,10.93
2019-03-03T03:25:46.725Z,14.07
2019-03-03T03:26:49.772Z,9.20
2019-03-03T03:28:01.820Z,9.38
2019-03-03T03:29:10.739Z,10.80
2019-03-03T03:30:19.774Z,10.15
2019-03-03T03:31:41.059Z,9.10
2019-03-03T03:32:44.123Z,11.83
2019-03-03T03:34:02.388Z,15.38
2019-03-03T03:35:07.662Z,12.85
2019-03-03T03:36:10.806Z,10.15
2019-03-03T03:37:16.379Z,13.60
2019-03-03T03:38:19.462Z,14.80
2019-03-03T03:39:28.548Z,11.63
2019-03-03T03:40:34.164Z,11.25
2019-03-03T03:41:39.982Z,13.60
2019-03-03T03:42:43.036Z,14.03
2019-03-03T03:43:46.092Z,11.83
2019-03-03T03:45:05.475Z,14.10
2019-03-03T03:46:08.544Z,11.15
2019-03-03T03:47:11.674Z,12.85
2019-03-03T03:48:20.770Z,13.10
2019-03-03T03:49:29.695Z,11.15
2019-03-03T03:50:38.309Z,11.18
2019-03-03T03:51:55.181Z,12.25
2019-03-03T03:53:01.360Z,11.53
2019-03-03T03:54:13.377Z,11.05
2019-03-03T03:55:19.205Z,12.15
2019-03-03T03:56:34.314Z,7.90
2019-03-03T03:57:37.350Z,9.93
2019-03-03T03:58:43.667Z,8.43
2019-03-03T03:59:52.316Z,9.40
2019-03-03T04:01:04.094Z,7.97
2019-03-03T04:02:25.313Z,11.80
2019-03-03T04:03:44.708Z,10.32
2019-03-03T04:04:53.570Z,15.32
2019-03-03T04:06:02.737Z,14.87
2019-03-03T04:07:08.610Z,9.55
2019-03-03T04:08:14.442Z,8.53
2019-03-03T04:09:17.599Z,11.97
2019-03-03T04:10:29.791Z,13.18
2019-03-03T04:11:33.107Z,9.65
2019-03-03T04:12:48.158Z,10.53
2019-03-03T04:14:02.961Z,10.23
2019-03-03T04:15:20.069Z,12.98
2019-03-03T04:16:25.836Z,10.75
2019-03-03T04:17:34.914Z,10.93
2019-03-03T04:18:38.292Z,14.33
2019-03-03T04:19:50.062Z,10.30
2019-03-03T04:20:55.911Z,9.85
2019-03-03T04:21:58.967Z,7.53
2019-03-03T04:23:18.951Z,7.72
2019-03-03T04:24:22.006Z,14.55
2019-03-03T04:25:27.818Z,11.18
2019-03-03T04:26:30.966Z,10.05
2019-03-03T04:27:51.972Z,8.80
2019-03-03T04:30:00.800Z,8.07
2019-03-03T04:31:09.430Z,11.80
2019-03-03T04:32:21.317Z,11.00
2019-03-03T04:33:24.367Z,12.65
2019-03-03T04:34:27.434Z,9.93
2019-03-03T04:35:30.477Z,12.13
2019-03-03T04:36:42.413Z,8.98
2019-03-03T04:37:48.523Z,14.05
2019-03-03T04:38:51.572Z,11.63
2019-03-03T04:40:03.434Z,10.35
2019-03-03T04:41:24.630Z,12.07
2019-03-03T04:42:30.662Z,13.90
2019-03-03T04:43:34.026Z,10.40
2019-03-03T04:44:42.637Z,10.18
2019-03-03T04:45:51.317Z,10.50
2019-03-03T04:47:06.314Z,10.63
2019-03-03T04:48:18.138Z,11.25
2019-03-03T04:49:27.017Z,12.78
2019-03-03T04:50:45.182Z,12.45
2019-03-03T04:51:51.176Z,13.50
2019-03-03T04:53:10.850Z,9.50
2019-03-03T04:54:16.477Z,17.05
2019-03-03T04:55:25.222Z,11.80
2019-03-03T04:56:34.319Z,9.05
2019-03-03T04:57:40.142Z,10.90
2019-03-03T04:58:59.622Z,11.83
2019-03-03T05:00:08.463Z,10.72
2019-03-03T05:01:20.429Z,9.43
2019-03-03T05:02:26.602Z,9.38
2019-03-03T05:03:29.645Z,9.13
2019-03-03T05:04:32.722Z,12.05
2019-03-03T05:05:35.780Z,12.28
2019-03-03T05:06:42.069Z,12.03
2019-03-03T05:07:59.911Z,7.42
2019-03-03T05:09:02.948Z,11.30
2019-03-03T05:10:07.913Z,7.60
2019-03-03T05:11:20.510Z,13.28
2019-03-03T05:12:33.099Z,9.20
2019-03-03T05:13:36.172Z,12.10
2019-03-03T05:14:43.474Z,8.33
2019-03-03T05:15:46.530Z,10.98
2019-03-03T05:16:49.578Z,10.82
2019-03-03T05:18:02.157Z,11.83
2019-03-03T05:19:05.205Z,14.60
2019-03-03T05:20:11.376Z,10.90
2019-03-03T05:21:12.513Z,10.10
2019-03-03T05:22:13.657Z,12.73
2019-03-03T05:23:14.796Z,11.35
2019-03-03T05:24:15.954Z,10.75
2019-03-03T05:25:17.110Z,7.92
2019-03-03T05:26:18.253Z,8.65
2019-03-03T05:27:19.399Z,13.50
2019-03-03T05:28:20.539Z,13.00
2019-03-03T05:29:21.794Z,12.78
2019-03-03T05:30:22.953Z,13.85
2019-03-03T05:31:24.099Z,12.25
2019-03-03T05:32:25.234Z,11.27
2019-03-03T05:33:26.389Z,12.88
2019-03-03T05:34:27.536Z,9.53
2019-03-03T05:35:28.686Z,15.35
2019-03-03T05:36:30.245Z,9.60
2019-03-03T05:37:31.459Z,10.40
2019-03-03T05:38:32.609Z,15.32
2019-03-03T05:39:33.790Z,8.23
2019-03-03T05:40:35.070Z,10.03
2019-03-03T05:41:36.208Z,9.48
2019-03-03T05:42:37.346Z,12.10
2019-03-03T05:43:38.493Z,10.78
2019-03-03T05:44:39.651Z,12.63
2019-03-03T05:45:40.802Z,10.03
2019-03-03T05:46:41.936Z,13.68
2019-03-03T05:47:43.082Z,10.60
2019-03-03T05:48:44.213Z,15.85
2019-03-03T05:49:45.352Z,13.53
2019-03-03T05:50:46.534Z,11.25
2019-03-03T05:51:47.702Z,11.63
2019-03-03T05:52:48.923Z,11.50
2019-03-03T05:53:50.071Z,13.28
2019-03-03T05:54:51.217Z,13.83
2019-03-03T05:55:52.457Z,13.30
2019-03-03T05:56:53.598Z,12.05
2019-03-03T05:57:54.737Z,11.85
2019-03-03T05:58:55.886Z,11.10
2019-03-03T05:59:57.033Z,14.93
2019-03-03T06:00:58.257Z,10.63
2019-03-03T06:01:59.389Z,14.30
2019-03-03T06:03:00.554Z,13.90
2019-03-03T06:04:01.697Z,13.50
2019-03-03T06:05:03.846Z,13.50
2019-03-03T06:06:05.007Z,12.43
2019-03-03T06:07:06.145Z,12.20
2019-03-03T06:08:07.288Z,14.25
2019-03-03T06:09:08.429Z,15.63
2019-03-03T06:10:09.571Z,13.20
2019-03-03T06:11:10.728Z,13.50
2019-03-03T06:12:11.918Z,16.07
2019-03-03T06:13:13.118Z,17.80
2019-03-03T06:14:15.066Z,12.90
2019-03-03T06:15:17.010Z,11.28
2019-03-03T06:16:18.174Z,13.72
2019-03-03T06:17:19.311Z,17.07
2019-03-03T06:18:20.446Z,18.52
2019-03-03T06:19:21.586Z,20.65
2019-03-03T06:20:22.729Z,13.75
2019-03-03T06:21:23.891Z,12.10
2019-03-03T06:22:25.041Z,15.20
2019-03-03T06:23:26.184Z,15.58
2019-03-03T06:24:27.326Z,14.60
2019-03-03T06:25:28.616Z,15.45
2019-03-03T06:26:29.768Z,19.70
2019-03-03T06:27:31.010Z,16.50
2019-03-03T06:28:32.163Z,15.35
2019-03-03T06:29:33.301Z,15.45
2019-03-03T06:30:34.446Z,13.43
2019-03-03T06:31:35.609Z,16.55
2019-03-03T06:32:36.954Z,13.40
2019-03-03T06:33:38.198Z,20.95
2019-03-03T06:34:39.350Z,16.57
2019-03-03T06:35:40.709Z,15.13
2019-03-03T06:36:42.103Z,11.33
2019-03-03T06:37:43.247Z,21.33
2019-03-03T06:38:44.393Z,15.80
2019-03-03T06:39:45.533Z,19.12
2019-03-03T06:40:46.678Z,12.80
2019-03-03T06:41:47.845Z,25.15
2019-03-03T06:42:48.994Z,20.23
2019-03-03T06:43:50.142Z,20.35
2019-03-03T06:44:51.402Z,15.38
2019-03-03T06:45:52.546Z,17.65
2019-03-03T06:46:55.934Z,17.02
2019-03-03T06:47:57.078Z,16.45
2019-03-03T06:48:58.217Z,15.15
2019-03-03T06:49:59.359Z,16.65
2019-03-03T06:51:00.583Z,18.20
2019-03-03T06:52:01.738Z,18.73
2019-03-03T06:53:02.883Z,16.35
2019-03-03T06:54:04.025Z,16.97
2019-03-03T06:55:06.265Z,19.15
2019-03-03T06:56:07.406Z,20.32
2019-03-03T06:57:08.564Z,16.70
2019-03-03T06:58:10.041Z,24.75
2019-03-03T06:59:11.243Z,18.52
2019-03-03T07:00:14.583Z,17.27
2019-03-03T07:01:15.742Z,19.87
2019-03-03T07:02:16.883Z,22.60
2019-03-03T07:03:18.048Z,16.12
2019-03-03T07:04:19.193Z,11.80
2019-03-03T07:07:22.405Z,15.08
2019-03-03T07:08:23.553Z,19.75
2019-03-03T07:09:24.697Z,16.02
2019-03-03T07:10:25.834Z,13.93
2019-03-03T07:11:26.990Z,20.23
2019-03-03T07:12:28.729Z,19.07
2019-03-03T07:13:29.902Z,20.55
2019-03-03T07:14:31.042Z,19.32
2019-03-03T07:15:32.177Z,18.55
2019-03-03T07:16:33.335Z,22.45
2019-03-03T07:17:34.647Z,21.60
2019-03-03T07:18:35.874Z,22.70
2019-03-03T07:21:39.173Z,17.90
2019-03-03T10:12:41.650Z,16.60
2019-03-03T10:19:23.362Z,13.25
2019-03-03T10:20:26.430Z,13.35
2019-03-03T10:21:35.500Z,12.68
2019-03-03T10:35:10.251Z,10.60
2019-03-03T10:36:16.146Z,10.75
2019-03-03T10:37:30.975Z,10.43
2019-03-03T10:38:36.637Z,12.45
2019-03-03T10:39:42.800Z,11.22
2019-03-03T10:41:04.149Z,9.25
2019-03-03T10:42:19.072Z,12.82
2019-03-03T10:43:22.110Z,10.93
2019-03-03T10:44:28.193Z,11.90
2019-03-03T10:45:40.198Z,8.28
2019-03-03T10:46:49.382Z,11.10
2019-03-03T10:47:54.950Z,8.68
2019-03-03T10:49:01.118Z,9.58
2019-03-03T10:50:08.222Z,7.85
2019-03-03T10:51:11.281Z,11.43
2019-03-03T10:52:20.112Z,9.95
2019-03-03T10:53:23.205Z,12.68
2019-03-03T10:54:26.551Z,9.83
2019-03-03T10:55:38.892Z,9.78
2019-03-03T10:56:47.530Z,12.10
2019-03-03T10:57:59.668Z,12.00
2019-03-03T10:59:17.613Z,10.03
2019-03-03T11:00:26.837Z,10.38
2019-03-03T11:01:38.650Z,9.10
2019-03-03T11:02:44.418Z,9.08
2019-03-03T11:04:04.249Z,10.20
2019-03-03T11:05:19.407Z,9.15
2019-03-03T11:06:37.571Z,11.18
2019-03-03T11:07:49.517Z,8.13
2019-03-03T11:08:52.962Z,8.73
2019-03-03T11:09:56.012Z,11.00
2019-03-03T11:11:01.669Z,10.50
2019-03-03T11:12:04.839Z,7.75
2019-03-03T11:27:25.014Z,10.45
2019-03-03T11:28:28.089Z,8.63
2019-03-03T11:29:33.689Z,10.45
2019-03-03T11:30:39.596Z,9.53
2019-03-03T11:31:54.781Z,10.00
2019-03-03T11:33:00.586Z,11.08
2019-03-03T11:34:03.676Z,10.70
2019-03-03T11:35:24.539Z,7.80
2019-03-03T11:36:27.583Z,7.62
2019-03-03T11:37:42.512Z,8.23
2019-03-03T11:38:45.689Z,9.63
2019-03-03T11:39:51.746Z,8.93
2019-03-03T11:40:56.788Z,7.90
2019-03-03T11:41:59.943Z,7.97
2019-03-03T11:43:02.980Z,6.97
2019-03-03T11:44:15.205Z,10.32
2019-03-03T11:45:27.235Z,6.70
2019-03-03T11:46:30.423Z,8.85
2019-03-03T11:47:33.675Z,7.65
2019-03-03T11:48:51.790Z,7.65
2019-03-03T11:50:01.141Z,7.90
2019-03-03T11:51:07.126Z,8.98
2019-03-03T11:52:27.237Z,6.40
2019-03-03T11:53:33.080Z,10.58
2019-03-03T11:54:36.129Z,6.30
2019-03-03T11:55:41.750Z,8.95
2019-03-03T11:56:45.097Z,7.03
2019-03-03T11:58:04.741Z,6.95
2019-03-03T11:59:07.889Z,10.08
2019-03-03T12:00:20.961Z,8.30
2019-03-03T12:01:29.566Z,7.90
2019-03-03T12:02:32.768Z,9.33
2019-03-03T12:03:52.584Z,8.88
2019-03-03T12:04:55.634Z,8.03
2019-03-03T12:06:10.311Z,6.33
2019-03-03T12:07:19.186Z,5.87
2019-03-03T12:08:27.845Z,7.08
2019-03-03T12:09:39.771Z,7.80
2019-03-03T12:10:59.502Z,7.20
2019-03-03T12:12:05.409Z,7.30
2019-03-03T12:13:08.564Z,9.15
2019-03-03T12:14:11.614Z,6.12
2019-03-03T12:15:17.174Z,9.25
2019-03-03T12:16:29.627Z,5.72
2019-03-03T12:17:32.677Z,8.28
2019-03-03T12:18:41.542Z,7.53
2019-03-03T12:19:44.598Z,8.48
2019-03-03T12:21:02.737Z,9.50
2019-03-03T12:22:10.118Z,11.10
2019-03-03T12:23:29.618Z,9.18
2019-03-03T12:24:38.454Z,8.23
2019-03-03T12:25:41.498Z,8.87
2019-03-03T12:27:02.731Z,8.35
2019-03-03T12:28:05.777Z,7.00
2019-03-03T12:29:17.674Z,7.62
2019-03-03T12:34:20.643Z,7.72
2019-03-03T12:35:35.318Z,8.58
2019-03-03T12:36:55.613Z,7.62
2019-03-03T12:37:58.666Z,7.97
2019-03-03T12:39:10.610Z,8.53
2019-03-03T12:40:16.181Z,9.08
2019-03-03T12:41:36.093Z,10.15
2019-03-03T12:42:45.157Z,10.15
2019-03-03T12:43:50.906Z,8.30
2019-03-03T12:44:53.947Z,9.85
2019-03-03T12:46:02.893Z,8.87
2019-03-03T12:47:22.650Z,8.87
2019-03-03T12:48:25.731Z,8.57
2019-03-03T12:49:31.564Z,11.85
2019-03-03T12:50:40.201Z,8.70
2019-03-03T12:51:55.375Z,7.30
2019-03-03T12:53:07.474Z,11.22
2019-03-03T12:54:13.383Z,9.63
2019-03-03T12:55:22.113Z,7.65
2019-03-03T12:56:28.600Z,8.28
2019-03-03T12:57:31.646Z,10.40
2019-03-03T12:58:40.249Z,8.05
2019-03-03T13:04:50.574Z,8.28
2019-03-03T13:05:59.474Z,8.50
